Danbury, Texas
Current Conditions -  °F | °C
As of 8:03 AM on Monday 22 Dec 2014 (Local Time) from KLBX Reporting Station
Overcast Overcast  
Wind Chill: 16°   Ceiling: 800
Heat Index: 16°   Visibility: 8mi
Dew Point: 16°   Wind: 5mph
Humidity: 100%   Direction: 210°SSW
Pressure: 29.77"   Gusts: NA
Location:  29.23°N, 95.34°W
Report Text: KLBX 221403Z AUTO 21004KT 8SM BKN008 OVC022 16/16 A2977 RMK AO2 CIG 006V011 T01610161
Loading
Personal Weather Stations






























Interactive Weather Map New forecast layout! Learn more

10-Day Weather Forecast

Advertisements
Track Severe Weather on mobile